Terminal Aerodrome Forecast
Issued by NWS

Home | Current Version | Previous Version | Text Only | Print | Product List | Glossary On
Versions: 1 2 3 4 5 6 7 8 9 10 11 12
155
FTUS43 KBIS 271720
TAFDIK
TAF
KDIK 271720Z 2718/2818 19014G23KT P6SM FEW100 SCT250
     FM272300 27017G26KT P6SM BKN200
     FM280100 30017G25KT P6SM VCTS BKN150CB
     FM280300 31014KT P6SM BKN200
     FM280500 32011KT P6SM BKN150=

USA.gov is the U.S. government's official web portal to all federal, state and local government web resources and services.